createdAt,value
2022-12-11T00:02:22.681Z,50.55
2022-12-11T00:05:24.759Z,47.42
2022-12-11T00:08:26.887Z,52.30
2022-12-11T00:11:29.035Z,40.00
2022-12-11T00:14:32.118Z,43.95
2022-12-11T00:17:34.040Z,48.58
2022-12-11T00:20:37.974Z,46.38
2022-12-11T00:23:40.714Z,38.30
2022-12-11T00:26:42.771Z,42.42
2022-12-11T00:29:45.055Z,39.70
2022-12-11T00:32:47.179Z,40.88
2022-12-11T00:35:49.542Z,43.22
2022-12-11T00:38:53.063Z,42.17
2022-12-11T00:41:55.362Z,52.90
2022-12-11T00:44:58.045Z,46.97
2022-12-11T00:48:00.288Z,44.78
2022-12-11T00:51:02.325Z,43.05
2022-12-11T00:54:04.516Z,49.97
2022-12-11T00:57:06.521Z,45.55
2022-12-11T01:00:09.115Z,46.45
2022-12-11T01:03:13.640Z,47.83
2022-12-11T01:06:18.946Z,51.67
2022-12-11T01:09:39.712Z,41.50
2022-12-11T01:12:41.792Z,44.45
2022-12-11T01:15:46.210Z,50.05
2022-12-11T01:18:48.231Z,44.97
2022-12-11T01:21:50.205Z,49.47
2022-12-11T01:24:52.307Z,47.15
2022-12-11T01:27:56.197Z,42.38
2022-12-11T01:30:58.411Z,55.85
2022-12-11T01:34:00.495Z,48.65
2022-12-11T01:37:02.716Z,50.35
2022-12-11T01:40:06.949Z,48.90
2022-12-11T01:43:12.040Z,42.25
2022-12-11T01:46:14.122Z,49.42
2022-12-11T01:49:19.033Z,40.63
2022-12-11T01:52:22.726Z,52.05
2022-12-11T01:55:25.016Z,41.85
2022-12-11T01:58:35.371Z,47.35
2022-12-11T02:01:45.340Z,47.38
2022-12-11T02:04:49.687Z,43.92
2022-12-11T02:07:58.904Z,39.85
2022-12-11T02:11:17.366Z,39.72
2022-12-11T02:14:30.482Z,41.90
2022-12-11T02:17:44.443Z,37.58
2022-12-11T02:21:08.180Z,40.17
2022-12-11T02:24:27.418Z,40.88
2022-12-11T02:27:36.760Z,42.88
2022-12-11T02:30:42.052Z,41.10
2022-12-11T02:33:57.016Z,43.95
2022-12-11T02:37:04.510Z,42.88
2022-12-11T02:40:11.365Z,43.80
2022-12-11T02:43:16.232Z,52.25
2022-12-11T02:46:21.840Z,44.60
2022-12-11T02:49:25.278Z,48.85
2022-12-11T02:52:29.697Z,47.45
2022-12-11T02:55:34.694Z,38.65
2022-12-11T02:58:43.219Z,40.60
2022-12-11T03:01:46.625Z,43.80
2022-12-11T03:04:50.586Z,42.28
2022-12-11T03:07:52.562Z,51.25
2022-12-11T03:10:55.031Z,53.22
2022-12-11T03:14:00.350Z,51.40
2022-12-11T03:17:17.424Z,52.78
2022-12-11T03:20:33.618Z,46.03
2022-12-11T03:23:49.061Z,45.22
2022-12-11T03:26:57.268Z,45.83
2022-12-11T03:30:14.396Z,43.58
2022-12-11T03:33:24.841Z,45.05
2022-12-11T03:36:33.626Z,40.58
2022-12-11T03:39:43.814Z,47.03
2022-12-11T03:42:49.848Z,46.42
2022-12-11T03:45:53.913Z,47.60
2022-12-11T03:49:02.262Z,46.30
2022-12-11T03:52:06.214Z,50.38
2022-12-11T03:55:10.912Z,54.42
2022-12-11T03:58:13.125Z,48.55
2022-12-11T04:01:15.406Z,52.78
2022-12-11T04:04:17.586Z,44.08
2022-12-11T04:07:19.741Z,45.10
2022-12-11T04:10:21.753Z,47.53
2022-12-11T04:13:23.890Z,48.75
2022-12-11T04:16:25.898Z,51.20
2022-12-11T04:20:06.550Z,42.60
2022-12-11T04:23:33.354Z,47.30
2022-12-11T04:26:35.380Z,51.13
2022-12-11T04:29:37.349Z,49.15
2022-12-11T04:32:39.547Z,52.88
2022-12-11T04:35:41.582Z,44.47
2022-12-11T04:38:43.620Z,52.38
2022-12-11T04:41:45.564Z,46.47
2022-12-11T04:44:47.698Z,41.55
2022-12-11T04:47:49.680Z,38.45
2022-12-11T04:50:51.675Z,43.33
2022-12-11T04:53:53.753Z,41.70
2022-12-11T04:56:55.788Z,44.85
2022-12-11T04:59:57.759Z,48.03
2022-12-11T05:02:59.920Z,56.22
2022-12-11T05:06:02.039Z,53.30
2022-12-11T05:09:04.397Z,50.05
2022-12-11T05:12:06.439Z,51.08
2022-12-11T05:15:09.164Z,41.33
2022-12-11T05:18:11.583Z,44.03
2022-12-11T05:21:15.304Z,44.03
2022-12-11T05:24:17.423Z,44.78
2022-12-11T05:27:19.534Z,44.53
2022-12-11T05:30:21.466Z,44.30
2022-12-11T05:33:24.193Z,50.63
2022-12-11T05:36:32.306Z,42.75
2022-12-11T05:39:34.366Z,39.45
2022-12-11T05:42:36.391Z,48.10
2022-12-11T05:45:39.054Z,44.58
2022-12-11T05:48:42.072Z,43.53
2022-12-11T05:51:44.245Z,54.38
2022-12-11T05:54:50.077Z,49.60
2022-12-11T05:57:52.143Z,41.88
2022-12-11T06:00:54.517Z,44.92
2022-12-11T06:03:57.978Z,54.22
2022-12-11T06:07:00.758Z,40.47
2022-12-11T06:10:02.766Z,43.08
2022-12-11T06:13:04.971Z,48.05
2022-12-11T06:16:09.031Z,49.22
2022-12-11T06:19:15.979Z,43.50
2022-12-11T06:22:18.340Z,49.10
2022-12-11T06:25:20.312Z,58.10
2022-12-11T06:28:22.451Z,43.38
2022-12-11T06:31:24.488Z,47.33
2022-12-11T06:34:26.554Z,39.83
2022-12-11T06:37:28.554Z,46.40
2022-12-11T06:40:31.022Z,35.55
2022-12-11T06:43:34.726Z,29.75
2022-12-11T06:46:36.738Z,33.78
2022-12-11T06:49:38.698Z,25.88
2022-12-11T06:52:40.943Z,20.13
2022-12-11T06:55:43.776Z,19.15
2022-12-11T06:58:46.037Z,21.92
2022-12-11T07:01:48.427Z,15.23
2022-12-11T07:04:54.938Z,16.40
2022-12-11T07:07:57.637Z,15.00
2022-12-11T07:11:08.128Z,12.00
2022-12-11T07:14:10.156Z,10.77
2022-12-11T07:17:13.677Z,10.05
2022-12-11T07:20:16.040Z,14.18
2022-12-11T07:23:18.110Z,7.82
2022-12-11T07:26:22.371Z,9.45
2022-12-11T07:29:24.707Z,9.00
2022-12-11T07:32:27.015Z,8.38
2022-12-11T07:35:29.113Z,10.52
2022-12-11T07:38:31.233Z,13.70
2022-12-11T07:41:33.478Z,12.43
2022-12-11T07:44:35.598Z,15.77
2022-12-11T07:47:37.663Z,22.67
2022-12-11T07:50:40.085Z,10.93
2022-12-11T07:53:47.459Z,10.57
2022-12-11T07:56:53.477Z,11.68
2022-12-11T07:59:56.059Z,16.02
2022-12-11T08:02:58.108Z,12.95
2022-12-11T08:06:00.155Z,12.68
2022-12-11T08:09:06.238Z,17.35
2022-12-11T08:12:08.285Z,10.30
2022-12-11T08:15:11.124Z,16.58
2022-12-11T08:18:15.157Z,19.45
2022-12-11T08:21:20.679Z,13.07
2022-12-11T08:24:22.908Z,14.70
2022-12-11T08:27:24.917Z,12.77
2022-12-11T08:30:27.346Z,12.10
2022-12-11T08:33:29.466Z,14.07
2022-12-11T08:36:33.146Z,12.32
2022-12-11T08:39:35.691Z,12.43
2022-12-11T08:42:40.584Z,10.25
2022-12-11T08:45:42.727Z,11.23
2022-12-11T08:48:46.443Z,10.57
2022-12-11T08:51:48.438Z,11.25
2022-12-11T08:54:50.517Z,15.00
2022-12-11T08:57:53.609Z,11.98
2022-12-11T09:00:58.384Z,12.02
2022-12-11T09:04:00.480Z,19.00
2022-12-11T09:07:02.549Z,8.63
2022-12-11T09:10:06.482Z,7.22
2022-12-11T09:13:08.706Z,15.73
2022-12-11T09:16:17.242Z,12.07
2022-12-11T09:22:21.650Z,9.82
2022-12-11T09:25:23.798Z,14.73
2022-12-11T09:28:26.181Z,11.23
2022-12-11T09:31:31.657Z,19.88
2022-12-11T09:34:34.210Z,17.13
2022-12-11T09:37:36.376Z,10.20
2022-12-11T09:40:43.470Z,9.45
2022-12-11T09:43:50.877Z,9.65
2022-12-11T09:46:53.019Z,17.65
2022-12-11T09:50:15.640Z,13.75
2022-12-11T09:53:37.139Z,16.83
2022-12-11T09:56:41.977Z,27.02
2022-12-11T10:00:17.977Z,18.98
2022-12-11T10:03:48.723Z,18.30
2022-12-11T10:07:02.601Z,15.60
2022-12-11T10:10:57.440Z,15.07
2022-12-11T10:14:38.450Z,20.52
2022-12-11T10:17:42.226Z,18.40
2022-12-11T10:20:45.468Z,12.63
2022-12-11T10:23:56.642Z,12.90
2022-12-11T10:27:10.454Z,16.45
2022-12-11T10:30:16.070Z,26.27
2022-12-11T10:33:50.364Z,22.48
2022-12-11T10:37:00.202Z,22.48
2022-12-11T10:40:02.839Z,20.83
2022-12-11T10:43:05.306Z,39.63
2022-12-11T10:46:20.355Z,23.85
2022-12-11T10:49:28.486Z,29.02
2022-12-11T10:52:38.246Z,21.67
2022-12-11T10:55:48.576Z,16.83
2022-12-11T10:58:52.232Z,22.08
2022-12-11T11:01:54.642Z,21.13
2022-12-11T11:04:59.306Z,24.17
2022-12-11T11:08:22.597Z,24.77
2022-12-11T11:11:24.559Z,25.10
2022-12-11T11:14:26.723Z,23.77
2022-12-11T11:17:33.772Z,26.23
2022-12-11T11:20:37.227Z,31.48
2022-12-11T11:23:46.235Z,42.97
2022-12-11T11:27:12.879Z,38.30
2022-12-11T11:30:23.154Z,26.95
2022-12-11T11:33:25.681Z,40.65
2022-12-11T11:36:30.902Z,29.85
2022-12-11T11:39:40.302Z,33.45
2022-12-11T11:43:04.263Z,34.75
2022-12-11T11:46:13.995Z,30.58
2022-12-11T11:49:16.739Z,28.17
2022-12-11T11:52:55.266Z,27.98
2022-12-11T11:56:06.130Z,33.72
2022-12-11T11:59:27.147Z,28.63
2022-12-11T12:02:29.466Z,25.35
2022-12-11T12:05:39.588Z,27.23
2022-12-11T12:09:03.561Z,30.58
2022-12-11T12:12:27.417Z,36.30
2022-12-11T12:15:54.928Z,19.23
2022-12-11T12:19:36.878Z,31.02
2022-12-11T12:23:00.645Z,31.25
2022-12-11T12:26:17.362Z,30.48
2022-12-11T12:29:35.375Z,31.10
2022-12-11T12:32:54.192Z,33.03
2022-12-11T12:36:21.667Z,30.15
2022-12-11T12:39:35.033Z,24.45
2022-12-11T12:43:00.128Z,29.00
2022-12-11T12:46:11.737Z,39.80
2022-12-11T12:49:33.819Z,28.67
2022-12-11T12:52:39.002Z,22.33
2022-12-11T12:55:41.820Z,27.98
2022-12-11T12:58:46.861Z,35.85
2022-12-11T13:01:55.480Z,25.17
2022-12-11T13:05:07.540Z,26.23
2022-12-11T13:08:11.561Z,34.15
2022-12-11T13:11:18.203Z,31.00
2022-12-11T13:14:21.301Z,31.98
2022-12-11T13:17:37.021Z,33.38
2022-12-11T13:20:51.236Z,31.45
2022-12-11T13:23:53.355Z,33.97
2022-12-11T13:26:55.959Z,30.83
2022-12-11T13:30:16.218Z,29.02
2022-12-11T13:33:19.526Z,24.52
2022-12-11T13:36:24.543Z,38.30
2022-12-11T13:39:32.733Z,38.72
2022-12-11T13:42:44.193Z,31.58
2022-12-11T13:45:50.620Z,30.88
2022-12-11T13:48:57.479Z,30.63
2022-12-11T13:52:00.946Z,33.13
2022-12-11T13:55:17.359Z,29.27
2022-12-11T13:58:21.741Z,30.10
2022-12-11T14:01:31.992Z,27.50
2022-12-11T14:04:35.073Z,28.00
2022-12-11T14:07:42.535Z,26.75
2022-12-11T14:10:44.567Z,36.75
2022-12-11T14:13:46.900Z,30.65
2022-12-11T14:16:51.160Z,34.53
2022-12-11T14:19:54.825Z,34.95
2022-12-11T14:23:18.512Z,39.85
2022-12-11T14:26:29.389Z,35.83
2022-12-11T14:29:33.407Z,31.85
2022-12-11T14:32:43.007Z,31.27
2022-12-11T14:35:46.844Z,32.60
2022-12-11T14:39:04.935Z,35.20
2022-12-11T14:42:20.058Z,32.50
2022-12-11T14:45:44.413Z,45.80
2022-12-11T14:49:10.022Z,29.55
2022-12-11T14:52:32.545Z,29.40
2022-12-11T14:55:38.250Z,31.30
2022-12-11T14:58:45.606Z,35.40
2022-12-11T15:01:57.861Z,28.65
2022-12-11T15:05:11.481Z,26.38
2022-12-11T15:08:13.666Z,31.45
2022-12-11T15:11:18.121Z,37.65
2022-12-11T15:14:22.277Z,32.42
2022-12-11T15:17:28.550Z,32.30
2022-12-11T15:20:30.941Z,29.80
2022-12-11T15:23:57.973Z,21.25
2022-12-11T15:27:01.289Z,18.98
2022-12-11T15:30:31.137Z,16.45
2022-12-11T15:33:47.096Z,20.42
2022-12-11T15:36:49.052Z,17.95
2022-12-11T15:39:52.514Z,14.95
2022-12-11T15:42:55.291Z,17.13
2022-12-11T15:46:02.163Z,14.63
2022-12-11T15:49:12.982Z,18.58
2022-12-11T15:52:15.033Z,13.60
2022-12-11T15:55:20.762Z,18.73
2022-12-11T15:58:24.674Z,13.55
2022-12-11T16:01:26.839Z,14.88
2022-12-11T16:04:28.919Z,11.35
2022-12-11T16:07:31.006Z,14.93
2022-12-11T16:10:32.927Z,19.30
2022-12-11T16:13:37.075Z,16.77
2022-12-11T16:16:39.141Z,17.40
2022-12-11T16:19:42.716Z,15.75
2022-12-11T16:22:44.870Z,15.07
2022-12-11T16:25:47.438Z,15.82
2022-12-11T16:28:49.522Z,15.98
2022-12-11T16:31:51.657Z,17.95
2022-12-11T16:34:54.224Z,28.40
2022-12-11T16:37:56.538Z,18.90
2022-12-11T16:41:04.649Z,17.13
2022-12-11T16:44:07.057Z,15.82
2022-12-11T16:47:09.187Z,14.60
2022-12-11T16:50:13.994Z,13.15
2022-12-11T16:53:17.691Z,5.63
2022-12-11T16:56:19.701Z,10.48
2022-12-11T16:59:21.661Z,12.63
2022-12-11T17:02:26.134Z,14.48
2022-12-11T17:05:28.145Z,13.77
2022-12-11T17:08:30.275Z,15.90
2022-12-11T17:11:32.311Z,14.35
2022-12-11T17:14:34.460Z,13.95
2022-12-11T17:17:36.568Z,5.82
2022-12-11T17:21:15.835Z,10.27
2022-12-11T17:24:49.729Z,4.53
2022-12-11T17:27:51.704Z,8.75
2022-12-11T17:30:54.281Z,5.10
2022-12-11T17:34:00.709Z,6.22
2022-12-11T17:37:02.969Z,5.47
2022-12-11T17:40:05.581Z,4.53
2022-12-11T17:43:09.545Z,6.50
2022-12-11T17:46:12.103Z,5.72
2022-12-11T17:49:14.126Z,6.30
2022-12-11T17:52:27.305Z,16.27
2022-12-11T17:55:31.650Z,6.85
2022-12-11T17:58:37.302Z,7.28
2022-12-11T18:01:39.421Z,6.15
2022-12-11T18:04:42.462Z,5.90
2022-12-11T18:07:44.569Z,6.20
2022-12-11T18:10:48.072Z,4.85
2022-12-11T18:13:53.676Z,8.55
2022-12-11T18:16:55.917Z,5.47
2022-12-11T18:19:58.041Z,5.15
2022-12-11T18:23:01.723Z,11.07
2022-12-11T18:26:03.868Z,5.97
2022-12-11T18:29:07.451Z,6.38
2022-12-11T18:32:09.632Z,3.33
2022-12-11T18:35:12.297Z,7.88
2022-12-11T18:38:16.729Z,7.10
2022-12-11T18:41:20.160Z,3.90
2022-12-11T18:44:22.846Z,4.95
2022-12-11T18:47:26.371Z,4.35
2022-12-11T18:50:28.426Z,6.28
2022-12-11T18:53:32.852Z,6.47
2022-12-11T18:56:35.067Z,6.13
2022-12-11T18:59:37.385Z,5.13
2022-12-11T19:02:39.592Z,5.82
2022-12-11T19:05:45.668Z,5.55
2022-12-11T19:08:48.253Z,7.22
2022-12-11T19:11:50.260Z,5.03
2022-12-11T19:14:52.331Z,5.13
2022-12-11T19:17:54.393Z,33.10
2022-12-11T19:21:08.053Z,3.72
2022-12-11T19:24:18.164Z,10.60
2022-12-11T19:27:22.636Z,4.47
2022-12-11T19:30:24.996Z,10.23
2022-12-11T19:33:28.511Z,6.13
2022-12-11T19:36:31.795Z,9.32
2022-12-11T19:39:33.953Z,10.32
2022-12-11T19:42:36.118Z,5.05
2022-12-11T19:45:38.771Z,7.28
2022-12-11T19:48:41.933Z,6.88
2022-12-11T19:51:44.118Z,4.85
2022-12-11T19:54:46.421Z,14.30
2022-12-11T19:57:48.473Z,6.70
2022-12-11T20:00:50.684Z,9.77
2022-12-11T20:03:55.044Z,7.90
2022-12-11T20:06:57.344Z,2.83
2022-12-11T20:10:00.526Z,3.75
2022-12-11T20:13:02.961Z,7.50
2022-12-11T20:16:06.720Z,7.40
2022-12-11T20:19:09.062Z,6.10
2022-12-11T20:22:11.704Z,6.78
2022-12-11T20:25:14.196Z,7.25
2022-12-11T20:28:16.527Z,5.50
2022-12-11T20:31:28.166Z,5.53
2022-12-11T20:34:30.439Z,5.90
2022-12-11T20:37:32.680Z,5.07
2022-12-11T20:40:39.430Z,6.65
2022-12-11T20:43:43.123Z,7.65
2022-12-11T20:46:45.351Z,6.32
2022-12-11T20:49:49.303Z,5.88
2022-12-11T20:52:51.918Z,3.97
2022-12-11T20:55:54.833Z,8.25
2022-12-11T20:58:58.502Z,4.88
2022-12-11T21:02:00.634Z,6.18
2022-12-11T21:05:03.611Z,9.80
2022-12-11T21:08:06.009Z,8.00
2022-12-11T21:11:09.309Z,6.18
2022-12-11T21:14:11.489Z,5.10
2022-12-11T21:17:13.528Z,5.15
2022-12-11T21:20:15.651Z,4.07
2022-12-11T21:23:17.892Z,3.22
2022-12-11T21:26:20.734Z,4.32
2022-12-11T21:29:28.043Z,6.82
2022-12-11T21:32:30.404Z,7.15
2022-12-11T21:35:32.942Z,6.53
2022-12-11T21:38:34.968Z,5.18
2022-12-11T21:41:36.990Z,4.00
2022-12-11T21:48:01.187Z,4.25
2022-12-11T21:51:08.851Z,3.85
2022-12-11T21:54:14.499Z,5.37
2022-12-11T21:57:20.049Z,3.40
2022-12-11T22:00:24.913Z,7.35
2022-12-11T22:03:27.313Z,7.97
2022-12-11T22:06:29.563Z,4.53
2022-12-11T22:09:31.571Z,8.05
2022-12-11T22:12:33.934Z,5.32
2022-12-11T22:15:36.015Z,4.65
2022-12-11T22:18:38.396Z,5.43
2022-12-11T22:21:41.079Z,6.18
2022-12-11T22:24:43.039Z,7.15
2022-12-11T22:27:46.083Z,5.60
2022-12-11T22:30:48.318Z,5.07
2022-12-11T22:33:53.800Z,6.53
2022-12-11T22:36:56.395Z,7.30
2022-12-11T22:39:58.715Z,8.00
2022-12-11T22:43:00.878Z,6.65
2022-12-11T22:46:03.420Z,7.00
2022-12-11T22:49:05.572Z,5.72
2022-12-11T22:52:07.570Z,5.72
2022-12-11T22:55:09.808Z,8.73
2022-12-11T22:58:12.422Z,5.78
2022-12-11T23:01:22.439Z,8.70
2022-12-11T23:04:24.892Z,5.60
2022-12-11T23:07:27.350Z,8.30
2022-12-11T23:10:29.450Z,9.38
2022-12-11T23:13:31.501Z,9.63
2022-12-11T23:16:33.900Z,6.18
2022-12-11T23:19:36.507Z,8.27
2022-12-11T23:22:38.718Z,10.77
2022-12-11T23:25:40.938Z,7.80
2022-12-11T23:28:42.993Z,10.48
2022-12-11T23:31:45.204Z,6.82
2022-12-11T23:34:47.371Z,10.20
2022-12-11T23:37:49.448Z,6.93
2022-12-11T23:40:52.463Z,14.13
2022-12-11T23:43:54.844Z,8.30
2022-12-11T23:46:56.907Z,8.23
2022-12-11T23:49:59.044Z,7.72
2022-12-11T23:53:01.172Z,7.15
2022-12-11T23:56:06.311Z,7.82
2022-12-11T23:59:12.609Z,8.45
